Time;durP1;ratioP1;P1;durP2;ratioP2;P2;SDS_P1;SDS_P2;PMS_P1;PMS_P2;Temp;Humidity;BMP_temperature;BMP_pressure;BME280_temperature;BME280_humidity;BME280_pressure;Samples;Min_cycle;Max_cycle;Signal;HPM_P1;HPM_P2
2023/04/06 00:00:32;;;;;;;;;;;;;;;9.74;57.74;101633.75;5121176;28;19979;-55
2023/04/06 00:02:58;;;;;;;;;;;;;;;9.66;57.69;101631.06;5119848;28;19934;-55
2023/04/06 00:05:23;;;;;;;;;;;;;;;9.71;57.14;101623.41;5121907;28;19931;-52
2023/04/06 00:07:49;;;;;;;;;;;;;;;9.66;58.22;101626.56;5123799;28;19916;-55
2023/04/06 00:10:16;;;;;;;;;;;;;;;9.69;59.20;101626.22;5120153;28;19928;-52
2023/04/06 00:12:41;;;;;;;;;;;;;;;9.71;59.11;101623.41;5121388;28;19926;-52
2023/04/06 00:15:07;;;;;;;;;;;;;;;9.59;60.14;101621.06;5119842;28;19926;-55
2023/04/06 00:17:32;;;;;;;;;;;;;;;9.59;59.93;101621.06;5123469;28;19979;-55
2023/04/06 00:19:58;;;;;;;;;;;;;;;9.52;59.68;101619.25;5119303;28;19926;-53
2023/04/06 00:22:23;;;;;;;;;;;;;;;9.27;61.71;101625.44;5121758;28;19915;-52
2023/04/06 00:24:48;;;;;;;;;;;;;;;9.37;62.66;101613.75;5118755;28;19920;-50
2023/04/06 00:27:14;;;;;;;;;;;;;;;9.48;63.02;101618.75;5118868;28;19916;-54
2023/04/06 00:29:40;;;;;;;;;;;;;;;9.36;63.42;101612.94;5120974;28;19920;-52
2023/04/06 00:32:05;;;;;;;;;;;;;;;9.32;62.88;101609.75;5102389;28;19920;-56
2023/04/06 00:34:31;;;;;;;;;;;;;;;9.29;63.11;101604.75;5119592;28;19916;-53
2023/04/06 00:36:56;;;;;;;;;;;;;;;9.17;63.26;101600.75;5099627;28;19928;-48
2023/04/06 00:39:22;;;;;;;;;;;;;;;8.82;63.44;101602.75;5117725;28;19922;-52
2023/04/06 00:41:50;;;;;;;;;;;;;;;8.78;64.19;101604.09;5102059;28;19975;-52
2023/04/06 00:44:16;;;;;;;;;;;;;;;8.98;63.04;101597.41;5119008;28;19951;-49
2023/04/06 00:46:42;;;;;;;;;;;;;;;8.71;64.13;101595.91;5117116;28;19979;-53
2023/04/06 00:49:08;;;;;;;;;;;;;;;8.69;63.44;101589.91;5117149;28;19923;-51
2023/04/06 00:51:33;;;;;;;;;;;;;;;8.90;62.73;101592.09;5120662;28;19924;-54
2023/04/06 00:53:59;;;;;;;;;;;;;;;8.86;62.69;101588.91;5136260;28;19926;-50
2023/04/06 00:56:26;;;;;;;;;;;;;;;8.73;63.61;101583.25;5100075;28;19908;-51
2023/04/06 00:58:53;;;;;;;;;;;;;;;8.62;63.69;101584.38;5101559;28;19923;-53
2023/04/06 01:01:18;;;;;;;;;;;;;;;8.70;63.10;101583.56;5118081;28;19921;-50
2023/04/06 01:03:48;;;;;;;;;;;;;;;8.67;63.05;101573.22;5098929;28;20005;-53
2023/04/06 01:06:16;;;;;;;;;;;;;;;8.77;62.93;101578.41;5097283;28;19923;-54
2023/04/06 01:08:45;;;;;;;;;;;;;;;8.72;62.96;101577.06;5138042;27;19923;-52
2023/04/06 01:11:19;;;;;;;;;;;;;;;8.87;63.16;101571.88;5106919;28;19981;-50
2023/04/06 01:13:49;;;;;;;;;;;;;;;9.03;61.80;101564.91;5126665;28;19915;-52
2023/04/06 01:16:25;;;;;;;;;;;;;;;8.80;62.70;101567.41;5102114;28;19916;-51
2023/04/06 01:19:12;;;;;;;;;;;;;;;8.88;63.23;101567.41;5139166;27;19922;-50
2023/04/06 01:21:41;;;;;;;;;;;;;;;8.95;62.62;101562.25;5122281;28;19918;-49
2023/04/06 01:24:13;;;;;;;;;;;;;;;8.73;62.67;101567.22;5123409;28;19924;-50
2023/04/06 01:27:06;;;;;;;;;;;;;;;8.74;63.01;101559.06;5102519;28;19954;-54
2023/04/06 01:29:48;;;;;;;;;;;;;;;8.47;63.99;101558.31;5124297;28;20025;-51
2023/04/06 01:32:21;;;;;;;;;;;;;;;8.52;63.84;101557.88;5105656;28;19922;-54
2023/04/06 01:34:49;;;;;;;;;;;;;;;8.53;64.09;101553.34;5104666;28;19916;-49
2023/04/06 01:37:14;;;;;;;;;;;;;;;8.56;63.61;101550.38;5123852;28;19927;-53
2023/04/06 01:39:41;;;;;;;;;;;;;;;8.60;64.08;101543.72;5139803;27;19959;-51
2023/04/06 01:42:07;;;;;;;;;;;;;;;8.70;63.78;101540.91;5105431;28;19924;-50
2023/04/06 01:44:35;;;;;;;;;;;;;;;8.75;64.00;101533.22;5108341;28;19927;-49
2023/04/06 01:47:11;;;;;;;;;;;;;;;8.60;64.54;101539.22;5104567;28;19916;-52
2023/04/06 01:49:36;;;;;;;;;;;;;;;8.73;64.82;101535.22;5105074;28;19924;-51
2023/04/06 01:52:02;;;;;;;;;;;;;;;8.51;65.19;101531.38;5134201;27;19951;-50
2023/04/06 01:54:29;;;;;;;;;;;;;;;8.53;66.26;101532.03;5136864;27;20005;-53
2023/04/06 01:57:17;;;;;;;;;;;;;;;8.51;65.79;101531.38;5085584;28;19924;-54
2023/04/06 01:59:48;;;;;;;;;;;;;;;8.47;66.14;101528.19;5102660;28;19920;-48
2023/04/06 02:02:25;;;;;;;;;;;;;;;8.46;67.05;101519.34;5101360;28;19916;-49
2023/04/06 02:04:57;;;;;;;;;;;;;;;8.40;67.02;101517.34;5102117;28;19959;-51
2023/04/06 02:07:23;;;;;;;;;;;;;;;8.43;67.32;101513.53;5103873;28;19931;-51
2023/04/06 02:09:49;;;;;;;;;;;;;;;8.36;67.79;101513.34;5102521;28;19913;-53
2023/04/06 02:12:23;;;;;;;;;;;;;;;8.39;68.05;101506.81;5101186;28;19923;-51
2023/04/06 02:14:48;;;;;;;;;;;;;;;8.39;68.16;101505.00;5102361;28;19916;-49
2023/04/06 02:17:14;;;;;;;;;;;;;;;8.64;67.78;101499.72;5102549;28;19920;-52
2023/04/06 02:19:40;;;;;;;;;;;;;;;8.51;68.75;101500.22;5102918;28;19916;-51
2023/04/06 02:22:05;;;;;;;;;;;;;;;8.47;68.35;101494.34;5103330;28;19917;-52
2023/04/06 02:24:31;;;;;;;;;;;;;;;8.43;69.04;101487.69;5101091;28;19942;-52
2023/04/06 02:26:57;;;;;;;;;;;;;;;8.45;70.22;101488.34;5101089;28;20081;-53
2023/04/06 02:29:23;;;;;;;;;;;;;;;8.51;70.02;101494.03;5102347;28;19916;-53
2023/04/06 02:31:49;;;;;;;;;;;;;;;8.67;70.02;101494.06;5135749;27;19916;-53
2023/04/06 02:34:17;;;;;;;;;;;;;;;8.54;70.07;101491.88;5099094;28;19991;-50
2023/04/06 02:36:46;;;;;;;;;;;;;;;8.65;69.89;101482.72;5099738;28;19958;-52
2023/04/06 02:39:13;;;;;;;;;;;;;;;8.56;70.28;101481.88;5101864;28;19920;-50
2023/04/06 02:41:39;;;;;;;;;;;;;;;8.70;70.19;101485.72;5103105;28;19923;-48
2023/04/06 02:44:08;;;;;;;;;;;;;;;8.70;70.04;101483.06;5102451;28;19927;-48
2023/04/06 02:46:41;;;;;;;;;;;;;;;8.70;69.98;101483.06;5098949;28;19924;-48
2023/04/06 02:49:06;;;;;;;;;;;;;;;8.67;70.20;101475.38;5101637;28;19998;-50
2023/04/06 02:51:33;;;;;;;;;;;;;;;8.73;69.78;101472.03;5137370;27;19916;-50
2023/04/06 02:54:11;;;;;;;;;;;;;;;8.88;69.60;101474.03;5103609;28;19916;-53
2023/04/06 02:56:36;;;;;;;;;;;;;;;8.81;70.57;101465.88;5101307;28;19917;-52
2023/04/06 02:59:02;;;;;;;;;;;;;;;8.77;70.99;101461.88;5135371;27;19916;-53
2023/04/06 03:01:31;;;;;;;;;;;;;;;9.13;70.12;101460.66;5101822;28;19970;-51
2023/04/06 03:04:00;;;;;;;;;;;;;;;9.15;69.28;101458.66;5103811;28;19920;-48
2023/04/06 03:06:28;;;;;;;;;;;;;;;9.11;69.43;101460.84;5135517;27;19980;-50
2023/04/06 03:08:58;;;;;;;;;;;;;;;9.15;69.46;101455.97;5099832;28;19985;-53
2023/04/06 03:11:23;;;;;;;;;;;;;;;8.95;69.11;101456.34;5099363;28;19924;-54
2023/04/06 03:13:51;;;;;;;;;;;;;;;8.85;70.37;101458.38;5095831;28;19927;-50
2023/04/06 03:16:17;;;;;;;;;;;;;;;8.96;69.77;101455.34;5098018;28;19916;-50
2023/04/06 03:18:44;;;;;;;;;;;;;;;8.52;70.42;101455.72;5104043;28;19916;-52
2023/04/06 03:21:11;;;;;;;;;;;;;;;8.47;72.39;101449.03;5099371;28;19916;-52
2023/04/06 03:23:45;;;;;;;;;;;;;;;8.67;73.71;101458.56;5096874;28;19923;-52
2023/04/06 03:26:11;;;;;;;;;;;;;;;8.77;73.79;101453.06;5098601;28;19916;-49
2023/04/06 03:28:36;;;;;;;;;;;;;;;8.80;72.79;101450.06;5100217;28;19917;-50
2023/04/06 03:31:04;;;;;;;;;;;;;;;8.58;72.85;101455.06;5099086;28;19916;-50
2023/04/06 03:33:42;;;;;;;;;;;;;;;8.65;73.51;101447.22;5097315;28;19916;-49
2023/04/06 03:36:13;;;;;;;;;;;;;;;8.40;73.48;101441.84;5101804;28;19916;-52
2023/04/06 03:38:41;;;;;;;;;;;;;;;8.46;74.91;101449.22;5099602;28;19962;-52
2023/04/06 03:41:12;;;;;;;;;;;;;;;8.41;75.04;101441.69;5101820;28;19917;-47
2023/04/06 03:43:41;;;;;;;;;;;;;;;8.23;77.21;101433.03;5101151;28;19938;-50
2023/04/06 03:46:06;;;;;;;;;;;;;;;8.22;78.42;101437.53;5102547;28;19920;-52
2023/04/06 03:48:31;;;;;;;;;;;;;;;8.24;79.66;101429.34;5100492;28;19905;-50
2023/04/06 03:51:01;;;;;;;;;;;;;;;8.38;79.14;101422.53;5097631;28;19956;-51
2023/04/06 03:53:27;;;;;;;;;;;;;;;8.47;78.60;101429.56;5087030;28;19923;-51
2023/04/06 03:55:53;;;;;;;;;;;;;;;8.43;79.38;101430.88;5085241;28;19991;-50
2023/04/06 03:58:19;;;;;;;;;;;;;;;8.55;80.83;101432.22;5084623;28;19923;-51
2023/04/06 04:00:45;;;;;;;;;;;;;;;8.52;81.09;101426.38;5084740;28;19916;-53
2023/04/06 04:03:11;;;;;;;;;;;;;;;8.46;79.35;101434.03;5084737;28;19952;-52
2023/04/06 04:05:36;;;;;;;;;;;;;;;8.64;79.54;101432.22;5084958;28;19921;-49
2023/04/06 04:08:02;;;;;;;;;;;;;;;8.59;80.56;101424.75;5085311;28;19976;-53
2023/04/06 04:10:27;;;;;;;;;;;;;;;8.64;80.99;101429.56;5084876;28;19927;-52
2023/04/06 04:12:53;;;;;;;;;;;;;;;8.31;82.25;101427.72;5085792;28;19942;-50
2023/04/06 04:15:18;;;;;;;;;;;;;;;8.59;82.09;101424.75;5089194;28;19943;-53
2023/04/06 04:17:46;;;;;;;;;;;;;;;8.47;82.55;101433.03;5084967;28;19926;-53
2023/04/06 04:20:12;;;;;;;;;;;;;;;8.41;82.68;101430.19;5085562;28;19916;-50
2023/04/06 04:22:38;;;;;;;;;;;;;;;8.54;83.81;101435.91;5068054;28;19920;-48
2023/04/06 04:25:04;;;;;;;;;;;;;;;8.59;82.75;101430.91;5087178;28;19924;-48
2023/04/06 04:27:31;;;;;;;;;;;;;;;8.57;82.36;101432.06;5087586;28;19917;-52
2023/04/06 04:29:57;;;;;;;;;;;;;;;8.29;82.71;101425.22;5085907;28;19942;-49
2023/04/06 04:32:22;;;;;;;;;;;;;;;8.52;82.47;101431.72;5081902;28;19916;-53
2023/04/06 04:34:48;;;;;;;;;;;;;;;8.39;83.71;101427.72;5086092;28;19928;-50
2023/04/06 04:37:26;;;;;;;;;;;;;;;8.35;84.91;101422.88;5084423;28;19952;-51
2023/04/06 04:39:54;;;;;;;;;;;;;;;8.29;84.74;101421.69;5087439;28;19975;-51
2023/04/06 04:42:20;;;;;;;;;;;;;;;8.38;85.92;101426.03;5078781;28;19924;-50
2023/04/06 04:44:49;;;;;;;;;;;;;;;8.47;85.42;101429.56;5085264;28;19929;-52
2023/04/06 04:47:25;;;;;;;;;;;;;;;8.35;87.37;101420.22;5084522;28;20017;-50
2023/04/06 04:49:50;;;;;;;;;;;;;;;8.37;87.39;101418.19;5087885;28;19916;-52
2023/04/06 04:52:20;;;;;;;;;;;;;;;8.33;89.06;101417.72;5083646;28;19959;-50
2023/04/06 04:54:56;;;;;;;;;;;;;;;8.28;89.64;101420.03;5083358;28;19937;-57
2023/04/06 04:57:25;;;;;;;;;;;;;;;8.35;90.43;101414.88;5084827;28;19936;-51
2023/04/06 04:59:51;;;;;;;;;;;;;;;8.38;91.20;101418.06;5086229;28;19916;-49
2023/04/06 05:02:17;;;;;;;;;;;;;;;8.41;91.06;101419.53;5084874;28;19920;-51
2023/04/06 05:04:52;;;;;;;;;;;;;;;8.32;90.63;101413.41;5079046;28;19920;-51
2023/04/06 05:07:24;;;;;;;;;;;;;;;8.43;91.37;101415.72;5086641;28;19916;-50
2023/04/06 05:09:51;;;;;;;;;;;;;;;8.45;89.72;101416.38;5083521;28;19939;-49
2023/04/06 05:12:19;;;;;;;;;;;;;;;8.52;89.51;101421.91;5080398;28;19917;-50
2023/04/06 05:14:54;;;;;;;;;;;;;;;8.64;88.72;101411.72;5082142;28;19916;-53
2023/04/06 05:17:21;;;;;;;;;;;;;;;8.59;88.90;101416.75;5083342;28;19924;-49
2023/04/06 05:19:46;;;;;;;;;;;;;;;8.90;88.05;101421.34;5082830;28;19917;-52
2023/04/06 05:22:17;;;;;;;;;;;;;;;8.66;87.79;101408.91;5086760;28;19947;-53
2023/04/06 05:24:47;;;;;;;;;;;;;;;8.98;87.90;101416.00;5088614;28;20002;-52
2023/04/06 05:27:12;;;;;;;;;;;;;;;9.04;88.09;101412.66;5087861;28;19917;-51
2023/04/06 05:29:38;;;;;;;;;;;;;;;9.08;87.39;101414.97;5090920;28;19931;-53
2023/04/06 05:32:04;;;;;;;;;;;;;;;9.22;87.11;101408.91;5082010;28;19935;-51
2023/04/06 05:34:30;;;;;;;;;;;;;;;8.98;86.34;101408.00;5083469;28;19916;-52
2023/04/06 05:37:01;;;;;;;;;;;;;;;9.13;86.57;101408.13;5084104;28;19919;-53
2023/04/06 05:39:26;;;;;;;;;;;;;;;9.14;87.96;101403.63;5086611;28;19956;-49
2023/04/06 05:41:53;;;;;;;;;;;;;;;9.28;87.44;101407.41;5086897;28;19927;-52
2023/04/06 05:44:29;;;;;;;;;;;;;;;9.36;88.26;101401.19;5085916;28;19927;-52
2023/04/06 05:47:03;;;;;;;;;;;;;;;9.19;89.32;101398.59;5084363;28;19985;-50
2023/04/06 05:49:29;;;;;;;;;;;;;;;9.37;87.96;101400.19;5088465;28;19917;-49
2023/04/06 05:51:55;;;;;;;;;;;;;;;9.17;88.38;101400.59;5102683;28;19920;-52
2023/04/06 05:54:21;;;;;;;;;;;;;;;9.39;88.67;101411.53;5106828;28;19916;-51
2023/04/06 05:56:47;;;;;;;;;;;;;;;9.37;88.21;101408.19;5105294;28;19950;-53
2023/04/06 05:59:13;;;;;;;;;;;;;;;9.29;89.23;101412.59;5121189;28;19920;-52
2023/04/06 06:01:39;;;;;;;;;;;;;;;9.56;88.36;101407.78;5139049;27;19916;-50
2023/04/06 06:04:05;;;;;;;;;;;;;;;9.43;88.68;101413.69;5103454;28;19942;-51
2023/04/06 06:06:35;;;;;;;;;;;;;;;9.36;89.71;101411.88;5119324;28;19927;-50
2023/04/06 06:09:26;;;;;;;;;;;;;;;9.23;90.26;101410.63;5106855;28;19915;-50
2023/04/06 06:12:00;;;;;;;;;;;;;;;9.07;92.20;101408.00;5123809;28;19928;-48
2023/04/06 06:14:28;;;;;;;;;;;;;;;9.29;91.21;101415.25;5103733;28;19979;-52
2023/04/06 06:16:54;;;;;;;;;;;;;;;9.02;93.37;101413.81;5119650;28;19922;-52
2023/04/06 06:19:19;;;;;;;;;;;;;;;9.00;93.95;101419.34;5103960;28;19973;-50
2023/04/06 06:21:45;;;;;;;;;;;;;;;8.96;95.26;101412.66;5105373;28;19916;-53
2023/04/06 06:24:10;;;;;;;;;;;;;;;9.01;95.51;101413.00;5138368;27;19920;-53
2023/04/06 06:26:37;;;;;;;;;;;;;;;9.01;96.39;101414.84;5123810;28;19926;-53
2023/04/06 06:29:05;;;;;;;;;;;;;;;9.11;95.98;101406.63;5101401;28;20247;-51
2023/04/06 06:31:33;;;;;;;;;;;;;;;9.20;97.72;101408.25;5103214;28;19913;-50
2023/04/06 06:33:58;;;;;;;;;;;;;;;9.43;95.82;101411.03;5101067;28;21687;-51
2023/04/06 06:36:25;;;;;;;;;;;;;;;9.43;96.69;101413.69;5121311;28;19941;-51
2023/04/06 06:38:51;;;;;;;;;;;;;;;9.73;95.67;101415.72;5135547;27;19922;-51
2023/04/06 06:41:19;;;;;;;;;;;;;;;9.73;96.85;101419.22;5141823;27;19937;-52
2023/04/06 06:43:45;;;;;;;;;;;;;;;9.82;97.00;101421.84;5100957;28;19963;-53
2023/04/06 06:46:11;;;;;;;;;;;;;;;10.06;95.88;101417.34;5140496;27;20044;-51
2023/04/06 06:48:38;;;;;;;;;;;;;;;10.08;95.31;101413.47;5123087;28;19926;-50
2023/04/06 06:51:03;;;;;;;;;;;;;;;9.97;96.01;101413.91;5123095;28;20373;-52
2023/04/06 06:53:29;;;;;;;;;;;;;;;10.14;95.91;101419.97;5103058;28;19916;-52
2023/04/06 06:55:54;;;;;;;;;;;;;;;10.27;93.14;101416.69;5102893;28;19916;-50
2023/04/06 06:58:20;;;;;;;;;;;;;;;10.01;93.26;101412.53;5102277;28;19978;-53
2023/04/06 07:00:47;;;;;;;;;;;;;;;9.74;93.57;101415.53;5099745;28;19916;-49
2023/04/06 07:03:12;;;;;;;;;;;;;;;9.89;91.48;101412.94;5121553;28;19955;-54
2023/04/06 07:05:37;;;;;;;;;;;;;;;9.78;90.17;101410.69;5121799;28;19924;-51
2023/04/06 07:08:03;;;;;;;;;;;;;;;9.74;91.15;101396.84;5118344;28;19916;-53
2023/04/06 07:10:28;;;;;;;;;;;;;;;9.57;92.09;101390.75;5106085;28;19923;-53
2023/04/06 07:12:54;;;;;;;;;;;;;;;9.52;91.77;101386.94;5135303;27;19926;-52
2023/04/06 07:15:20;;;;;;;;;;;;;;;9.60;92.19;101390.41;5106962;28;19938;-56
2023/04/06 07:17:46;;;;;;;;;;;;;;;9.64;91.09;101393.56;5138050;27;19916;-54
2023/04/06 07:20:11;;;;;;;;;;;;;;;9.45;92.51;101395.66;5125475;28;19916;-51
2023/04/06 07:22:37;;;;;;;;;;;;;;;9.54;93.68;101403.63;5107092;28;19916;-53
2023/04/06 07:25:03;;;;;;;;;;;;;;;9.49;93.89;101395.31;5136089;27;19941;-53
2023/04/06 07:27:28;;;;;;;;;;;;;;;9.82;92.38;101401.28;5118140;28;19916;-55
2023/04/06 07:29:54;;;;;;;;;;;;;;;9.80;92.20;101397.97;5124836;28;19962;-51
2023/04/06 07:32:20;;;;;;;;;;;;;;;9.63;94.18;101397.25;5099529;28;19916;-55
2023/04/06 07:34:46;;;;;;;;;;;;;;;9.81;94.24;101394.28;5137338;27;19939;-51
2023/04/06 07:37:12;;;;;;;;;;;;;;;10.04;92.01;101394.31;5120060;28;20033;-54
2023/04/06 07:39:37;;;;;;;;;;;;;;;10.17;91.05;101396.41;5103625;28;19927;-52
2023/04/06 07:42:03;;;;;;;;;;;;;;;10.39;90.72;101396.56;5138272;27;19916;-53
2023/04/06 07:44:29;;;;;;;;;;;;;;;10.34;90.34;101396.25;5104599;28;19935;-52
2023/04/06 07:46:55;;;;;;;;;;;;;;;10.24;90.42;101390.31;5102356;28;19922;-50
2023/04/06 07:49:22;;;;;;;;;;;;;;;10.34;89.36;101388.22;5104711;28;19924;-52
2023/04/06 07:51:49;;;;;;;;;;;;;;;10.59;89.52;101396.03;5100512;28;19927;-51
2023/04/06 07:54:14;;;;;;;;;;;;;;;10.64;88.39;101387.50;5102028;28;19985;-51
2023/04/06 07:56:40;;;;;;;;;;;;;;;10.92;88.86;101387.69;5097161;28;19920;-53
2023/04/06 07:59:05;;;;;;;;;;;;;;;10.76;87.12;101392.19;5102791;28;19948;-51
2023/04/06 08:01:30;;;;;;;;;;;;;;;10.69;89.49;101393.97;5096535;28;19917;-51
2023/04/06 08:03:57;;;;;;;;;;;;;;;10.71;88.65;101399.97;5098443;28;19931;-52
2023/04/06 08:06:22;;;;;;;;;;;;;;;10.74;86.64;101399.59;5098346;28;19959;-52
2023/04/06 08:08:47;;;;;;;;;;;;;;;10.88;86.03;101399.78;5098371;28;19927;-51
2023/04/06 08:11:12;;;;;;;;;;;;;;;10.76;87.23;101400.22;5101771;28;19984;-50
2023/04/06 08:13:38;;;;;;;;;;;;;;;10.99;87.45;101398.50;5100358;28;19916;-52
2023/04/06 08:16:03;;;;;;;;;;;;;;;10.92;88.15;101402.91;5097140;28;19947;-50
2023/04/06 08:18:29;;;;;;;;;;;;;;;11.00;85.58;101398.31;5099801;28;19917;-51
2023/04/06 08:20:55;;;;;;;;;;;;;;;11.13;85.06;101400.34;5099777;28;19923;-52
2023/04/06 08:23:20;;;;;;;;;;;;;;;11.32;84.47;101404.31;5101479;28;19924;-53
2023/04/06 08:25:45;;;;;;;;;;;;;;;11.15;84.72;101400.16;5104698;28;19921;-51
2023/04/06 08:28:11;;;;;;;;;;;;;;;11.27;83.80;101397.84;5101932;28;19916;-51
2023/04/06 08:30:37;;;;;;;;;;;;;;;11.25;82.10;101406.06;5102481;28;19916;-51
2023/04/06 08:33:02;;;;;;;;;;;;;;;11.51;83.54;101406.59;5101626;28;19916;-51
2023/04/06 08:35:27;;;;;;;;;;;;;;;11.74;81.80;101401.06;5100802;28;20084;-52
2023/04/06 08:37:53;;;;;;;;;;;;;;;11.47;82.84;101411.47;5101648;28;19920;-49
2023/04/06 08:40:18;;;;;;;;;;;;;;;11.67;81.69;101398.34;5101425;28;19940;-51
2023/04/06 08:42:49;;;;;;;;;;;;;;;11.54;82.51;101409.72;5104091;28;19927;-57
2023/04/06 08:45:16;;;;;;;;;;;;;;;11.83;82.85;101401.78;5101391;28;19921;-53
2023/04/06 08:47:42;;;;;;;;;;;;;;;11.75;81.82;101406.25;5101607;28;19926;-52
2023/04/06 08:50:08;;;;;;;;;;;;;;;11.76;81.36;101407.06;5100482;28;19947;-53
2023/04/06 08:52:33;;;;;;;;;;;;;;;12.17;81.57;101409.16;5117059;28;19931;-52
2023/04/06 08:54:59;;;;;;;;;;;;;;;12.12;80.57;101400.06;5124174;28;19915;-50
2023/04/06 08:57:25;;;;;;;;;;;;;;;12.50;79.18;101406.97;5123530;28;19943;-51
2023/04/06 08:59:51;;;;;;;;;;;;;;;12.45;79.07;101404.88;5123782;28;20037;-52
2023/04/06 09:02:18;;;;;;;;;;;;;;;12.20;79.59;101407.97;5121417;28;19920;-53
2023/04/06 09:04:44;;;;;;;;;;;;;;;12.41;79.65;101401.72;5118049;28;19983;-54
2023/04/06 09:07:09;;;;;;;;;;;;;;;12.32;80.24;101406.41;5124266;28;19916;-53
2023/04/06 09:09:35;;;;;;;;;;;;;;;11.95;81.79;101411.00;5119292;28;19970;-51
2023/04/06 09:12:05;;;;;;;;;;;;;;;12.04;83.34;101414.41;5123078;28;19916;-50
2023/04/06 09:14:37;;;;;;;;;;;;;;;11.88;83.39;101412.78;5122449;28;19915;-53
2023/04/06 09:17:03;;;;;;;;;;;;;;;12.26;83.00;101409.06;5121338;28;19915;-50
2023/04/06 09:19:28;;;;;;;;;;;;;;;12.22;82.14;101413.13;5121817;28;19963;-51
2023/04/06 09:22:09;;;;;;;;;;;;;;;12.48;81.89;101412.53;5115967;28;19916;-49
2023/04/06 09:24:42;;;;;;;;;;;;;;;11.93;81.38;101413.03;5119735;28;19931;-51
2023/04/06 09:27:08;;;;;;;;;;;;;;;12.18;81.07;101407.31;5118698;28;19935;-50
2023/04/06 09:29:34;;;;;;;;;;;;;;;11.90;82.48;101408.06;5122107;28;20037;-50
2023/04/06 09:32:03;;;;;;;;;;;;;;;12.44;81.48;101411.25;5121859;28;19916;-50
2023/04/06 09:34:29;;;;;;;;;;;;;;;12.41;81.79;101404.41;5122234;28;19920;-52
2023/04/06 09:36:54;;;;;;;;;;;;;;;12.70;82.90;101407.97;5122527;28;19923;-49
2023/04/06 09:39:22;;;;;;;;;;;;;;;13.01;83.17;101404.03;5117909;28;19926;-54
2023/04/06 09:41:49;;;;;;;;;;;;;;;12.93;81.15;101406.03;5122695;28;19916;-52
2023/04/06 09:44:15;;;;;;;;;;;;;;;12.97;82.37;101404.59;5140088;27;19931;-53
2023/04/06 09:46:41;;;;;;;;;;;;;;;13.05;82.73;101399.91;5126732;28;19951;-51
2023/04/06 09:49:08;;;;;;;;;;;;;;;13.14;82.64;101397.03;5123879;28;19916;-53
2023/04/06 09:51:37;;;;;;;;;;;;;;;13.05;83.09;101404.47;5124466;28;19930;-51
2023/04/06 09:54:04;;;;;;;;;;;;;;;13.13;84.38;101398.06;5119298;28;19916;-55
2023/04/06 09:56:42;;;;;;;;;;;;;;;13.34;84.02;101400.66;5122060;28;19916;-55
2023/04/06 09:59:13;;;;;;;;;;;;;;;13.62;84.99;101404.31;5126315;28;19916;-54
2023/04/06 10:01:39;;;;;;;;;;;;;;;13.18;86.28;101409.06;5122781;28;19919;-52
2023/04/06 10:04:33;;;;;;;;;;;;;;;13.27;88.17;101402.50;5126252;28;20003;-52
2023/04/06 10:07:01;;;;;;;;;;;;;;;13.54;91.67;101401.81;5106212;28;19930;-50
2023/04/06 10:09:35;;;;;;;;;;;;;;;13.21;94.01;101397.94;5121900;28;19920;-52
2023/04/06 10:12:01;;;;;;;;;;;;;;;13.54;93.09;101404.50;5121224;28;19951;-53
2023/04/06 10:14:26;;;;;;;;;;;;;;;13.39;95.62;101405.44;5125324;28;19962;-53
2023/04/06 10:16:52;;;;;;;;;;;;;;;13.40;97.69;101412.47;5125119;28;19934;-54
2023/04/06 10:19:20;;;;;;;;;;;;;;;13.05;98.94;101418.69;5127448;28;19916;-49
2023/04/06 10:21:48;;;;;;;;;;;;;;;13.09;100.00;101410.25;5118685;28;19920;-51
2023/04/06 10:24:13;;;;;;;;;;;;;;;12.74;100.00;101417.28;5127689;28;19920;-53
2023/04/06 10:26:39;;;;;;;;;;;;;;;12.72;100.00;101426.53;5126014;28;19944;-52
2023/04/06 10:29:05;;;;;;;;;;;;;;;12.74;100.00;101416.44;5118784;28;20438;-50
2023/04/06 10:31:31;;;;;;;;;;;;;;;12.65;100.00;101413.06;5125527;28;19915;-50
2023/04/06 10:33:57;;;;;;;;;;;;;;;12.59;100.00;101421.91;5120100;28;19958;-54
2023/04/06 10:36:26;;;;;;;;;;;;;;;12.25;100.00;101396.66;5122762;28;19920;-49
2023/04/06 10:38:59;;;;;;;;;;;;;;;12.13;100.00;101413.25;5121043;28;19975;-49
2023/04/06 10:41:32;;;;;;;;;;;;;;;11.82;100.00;101426.91;5121517;28;19944;-53
2023/04/06 10:43:57;;;;;;;;;;;;;;;11.70;100.00;101413.19;5120227;28;19927;-51
2023/04/06 10:46:27;;;;;;;;;;;;;;;11.70;100.00;101403.31;5126476;28;19916;-53
2023/04/06 10:48:53;;;;;;;;;;;;;;;11.91;100.00;101405.16;5121237;28;19915;-52
2023/04/06 10:51:23;;;;;;;;;;;;;;;11.62;100.00;101411.44;5123760;28;19958;-52
2023/04/06 10:53:49;;;;;;;;;;;;;;;11.78;100.00;101407.72;5128122;28;19945;-49
2023/04/06 10:56:16;;;;;;;;;;;;;;;11.58;100.00;101413.69;5121783;28;19971;-55
2023/04/06 10:58:47;;;;;;;;;;;;;;;11.89;100.00;101406.41;5124308;28;19919;-51
2023/04/06 11:01:14;;;;;;;;;;;;;;;11.81;100.00;101404.66;5123611;28;19916;-55
2023/04/06 11:03:43;;;;;;;;;;;;;;;11.53;100.00;101424.09;5126298;28;19916;-54
2023/04/06 11:06:10;;;;;;;;;;;;;;;11.71;100.00;101409.47;5123334;28;19920;-52
2023/04/06 11:08:36;;;;;;;;;;;;;;;11.53;100.00;101413.41;5122647;28;19916;-51
2023/04/06 11:11:09;;;;;;;;;;;;;;;11.62;100.00;101400.72;5124159;28;19923;-54
2023/04/06 11:13:39;;;;;;;;;;;;;;;11.65;100.00;101400.38;5122709;28;19922;-51
2023/04/06 11:16:04;;;;;;;;;;;;;;;11.72;100.00;101397.75;5101190;28;19927;-55
2023/04/06 11:18:29;;;;;;;;;;;;;;;11.43;100.00;101402.16;5122316;28;19916;-53
2023/04/06 11:20:55;;;;;;;;;;;;;;;11.48;100.00;101395.22;5121166;28;19937;-51
2023/04/06 11:23:25;;;;;;;;;;;;;;;11.30;100.00;101401.00;5120711;28;19948;-51
2023/04/06 11:25:51;;;;;;;;;;;;;;;11.67;100.00;101386.78;5118673;28;19931;-56
2023/04/06 11:28:17;;;;;;;;;;;;;;;11.85;100.00;101387.19;5121352;28;19915;-50
2023/04/06 11:30:43;;;;;;;;;;;;;;;11.56;100.00;101378.22;5120348;28;19916;-52
2023/04/06 11:33:08;;;;;;;;;;;;;;;11.98;100.00;101369.56;5117922;28;19949;-54
2023/04/06 11:35:33;;;;;;;;;;;;;;;11.52;100.00;101366.19;5120325;28;20684;-52
2023/04/06 11:38:02;;;;;;;;;;;;;;;11.28;100.00;101378.91;5100031;28;19923;-53
2023/04/06 11:40:29;;;;;;;;;;;;;;;11.61;100.00;101366.91;5119517;28;19919;-50
2023/04/06 11:42:55;;;;;;;;;;;;;;;11.71;100.00;101358.56;5119952;28;19958;-55
2023/04/06 11:45:20;;;;;;;;;;;;;;;11.70;100.00;101364.94;5119946;28;19924;-55
2023/04/06 11:47:54;;;;;;;;;;;;;;;11.80;100.00;101354.78;5121629;28;20003;-53
2023/04/06 11:50:20;;;;;;;;;;;;;;;11.80;100.00;101360.13;5120749;28;19923;-53
2023/04/06 11:52:57;;;;;;;;;;;;;;;12.01;100.00;101350.47;5121926;28;19924;-55
2023/04/06 11:55:23;;;;;;;;;;;;;;;11.65;100.00;101348.63;5122444;28;19915;-53
2023/04/06 11:57:49;;;;;;;;;;;;;;;11.70;100.00;101343.53;5117962;28;19920;-51
2023/04/06 12:00:15;;;;;;;;;;;;;;;11.67;100.00;101349.25;5122353;28;19947;-53
2023/04/06 12:02:45;;;;;;;;;;;;;;;11.56;100.00;101354.13;5101525;28;20027;-52
2023/04/06 12:05:10;;;;;;;;;;;;;;;11.26;100.00;101348.81;5121833;28;19920;-50
2023/04/06 12:07:36;;;;;;;;;;;;;;;11.75;100.00;101336.56;5121990;28;19912;-50
2023/04/06 12:10:02;;;;;;;;;;;;;;;11.72;100.00;101336.97;5119206;28;19915;-52
2023/04/06 12:12:28;;;;;;;;;;;;;;;11.70;100.00;101338.16;5116157;28;19927;-51
2023/04/06 12:14:55;;;;;;;;;;;;;;;11.45;100.00;101334.00;5124194;28;19979;-53
2023/04/06 12:17:20;;;;;;;;;;;;;;;11.75;100.00;101333.06;5116803;28;20017;-53
2023/04/06 12:19:46;;;;;;;;;;;;;;;11.99;100.00;101325.66;5119073;28;19920;-54
2023/04/06 12:22:11;;;;;;;;;;;;;;;11.98;100.00;101332.88;5119212;28;19944;-52
2023/04/06 12:24:37;;;;;;;;;;;;;;;11.85;100.00;101320.19;5119421;28;19985;-52
2023/04/06 12:27:02;;;;;;;;;;;;;;;11.96;100.00;101336.75;5116643;28;19922;-55
2023/04/06 12:29:28;;;;;;;;;;;;;;;11.67;100.00;101320.63;5121355;28;19920;-51
2023/04/06 12:31:53;;;;;;;;;;;;;;;11.79;100.00;101320.97;5114790;28;19920;-54
2023/04/06 12:34:19;;;;;;;;;;;;;;;11.66;100.00;101328.84;5118355;28;19916;-53
2023/04/06 12:36:44;;;;;;;;;;;;;;;11.57;100.00;101333.50;5116317;28;19920;-57
2023/04/06 12:39:10;;;;;;;;;;;;;;;11.59;100.00;101310.03;5119268;28;19947;-54
2023/04/06 12:41:36;;;;;;;;;;;;;;;11.45;100.00;101309.06;5116452;28;19923;-54